This is the latest recevied weather packets stored in our database for station/object K3FEF-13. If no packets are shown the sender has not sent any weather packets the latest 10 day(s).
| Time | Temp. | Humidity | Pressure | Rain* | Wind** | Luminosity | Snow |
|---|---|---|---|---|---|---|---|
| 1777860917 | 6.11° C | 65% | 1014.1 hPa | 0 mm | - | - | - |
| 1777860316 | 6.11° C | 64% | 1014.1 hPa | 0 mm | - | - | - |
| 1777856737 | 7.22° C | 61% | 1013.8 hPa | 0 mm | - | - | - |
| 1777854316 | 8.89° C | 55% | 1013.5 hPa | 0 mm | - | - | - |
| 1777853116 | 10° C | 49% | 1013.4 hPa | 0 mm | - | - | - |
| 1777848936 | 11.67° C | 42% | 1012.8 hPa | 0 mm | - | - | - |
| 1777848316 | 11.67° C | 42% | 1012.7 hPa | 0 mm | - | - | - |
| 1777845916 | 12.22° C | 38% | 1012.7 hPa | 0 mm | - | - | - |
| 1777842316 | 12.78° C | 35% | 1012.5 hPa | 0 mm | - | - | - |
| 1777841716 | 12.78° C | 36% | 1012.6 hPa | 0 mm | - | - | - |
| 1777841116 | 12.22° C | 35% | 1012.6 hPa | 0 mm | - | - | - |
| 1777836936 | 12.22° C | 35% | 1013.2 hPa | 0 mm | - | - | - |
| 1777830936 | 11.11° C | 41% | 1013.7 hPa | 0 mm | - | - | - |
| 1777823718 | 8.33° C | 51% | 1014.5 hPa | 0 mm | - | - | - |
| 1777822517 | 7.78° C | 52% | 1014.6 hPa | 0 mm | - | - | - |
| 1777821917 | 7.22° C | 53% | 1014.6 hPa | 0 mm | - | - | - |
| 1777821337 | 7.22° C | 53% | 1014.5 hPa | 0 mm | - | - | - |
| 1777817137 | 7.22° C | 54% | 1014.4 hPa | 0 mm | - | - | - |
| 1777814717 | 6.67° C | 60% | 1014.6 hPa | 0 mm | - | - | - |
| 1777812917 | 6.11° C | 65% | 1014.6 hPa | 0 mm | - | - | - |
| 1777807537 | 3.33° C | 75% | 1014.3 hPa | 0 mm | - | - | - |
| 1777806917 | 3.33° C | 76% | 1014.1 hPa | 0 mm | - | - | - |
| 1777802117 | 2.22° C | 78% | 1013.3 hPa | 0 mm | - | - | - |
| 1777801516 | 2.78° C | 78% | 1013.1 hPa | 0 mm | - | - | - |
| 1777793116 | 3.33° C | 71% | 1013.3 hPa | 0 mm | - | - | - |
* Rain latest hour (hover to see other rain measurements)
** Current wind speed in m/s (hover to see current wind gust speed)